sensor_id;sensor_type;location;lat;lon;timestamp;P1;durP1;ratioP1;P2;durP2;ratioP2
70335;SDS011;57756;47.408;18.940;2022-08-03T00:01:31;4.20;;;2.10;;
70335;SDS011;57756;47.408;18.940;2022-08-03T00:03:57;4.28;;;1.70;;
70335;SDS011;57756;47.408;18.940;2022-08-03T00:06:22;4.20;;;1.97;;
70335;SDS011;57756;47.408;18.940;2022-08-03T00:08:48;6.50;;;1.97;;
70335;SDS011;57756;47.408;18.940;2022-08-03T00:11:13;5.18;;;2.30;;
70335;SDS011;57756;47.408;18.940;2022-08-03T00:13:39;4.10;;;2.07;;
70335;SDS011;57756;47.408;18.940;2022-08-03T00:16:04;4.27;;;2.07;;
70335;SDS011;57756;47.408;18.940;2022-08-03T00:18:30;3.97;;;1.90;;
70335;SDS011;57756;47.408;18.940;2022-08-03T00:20:55;6.23;;;2.20;;
70335;SDS011;57756;47.408;18.940;2022-08-03T00:23:21;6.30;;;2.15;;
70335;SDS011;57756;47.408;18.940;2022-08-03T00:25:46;3.83;;;2.13;;
70335;SDS011;57756;47.408;18.940;2022-08-03T00:28:12;4.63;;;2.27;;
70335;SDS011;57756;47.408;18.940;2022-08-03T00:30:37;3.67;;;2.30;;
70335;SDS011;57756;47.408;18.940;2022-08-03T00:33:03;4.30;;;2.30;;
70335;SDS011;57756;47.408;18.940;2022-08-03T00:35:29;4.28;;;2.38;;
70335;SDS011;57756;47.408;18.940;2022-08-03T00:37:55;4.43;;;2.30;;
70335;SDS011;57756;47.408;18.940;2022-08-03T00:40:20;4.82;;;2.53;;
70335;SDS011;57756;47.408;18.940;2022-08-03T00:42:50;3.73;;;2.50;;
70335;SDS011;57756;47.408;18.940;2022-08-03T00:45:18;4.45;;;2.47;;
70335;SDS011;57756;47.408;18.940;2022-08-03T00:47:45;3.83;;;2.40;;
70335;SDS011;57756;47.408;18.940;2022-08-03T00:50:11;6.80;;;3.00;;
70335;SDS011;57756;47.408;18.940;2022-08-03T00:52:37;6.20;;;2.90;;
70335;SDS011;57756;47.408;18.940;2022-08-03T00:55:03;4.63;;;2.53;;
70335;SDS011;57756;47.408;18.940;2022-08-03T00:57:29;4.00;;;2.80;;
70335;SDS011;57756;47.408;18.940;2022-08-03T00:59:56;7.43;;;2.97;;
70335;SDS011;57756;47.408;18.940;2022-08-03T01:02:24;4.78;;;3.03;;
70335;SDS011;57756;47.408;18.940;2022-08-03T01:04:50;6.10;;;3.30;;
70335;SDS011;57756;47.408;18.940;2022-08-03T01:07:26;5.33;;;3.23;;
70335;SDS011;57756;47.408;18.940;2022-08-03T01:10:04;5.47;;;3.40;;
70335;SDS011;57756;47.408;18.940;2022-08-03T01:12:43;6.60;;;3.92;;
70335;SDS011;57756;47.408;18.940;2022-08-03T01:15:37;6.90;;;3.70;;
70335;SDS011;57756;47.408;18.940;2022-08-03T01:18:54;6.47;;;3.88;;
70335;SDS011;57756;47.408;18.940;2022-08-03T01:21:31;6.80;;;3.90;;
70335;SDS011;57756;47.408;18.940;2022-08-03T01:24:11;4.93;;;3.70;;
70335;SDS011;57756;47.408;18.940;2022-08-03T01:30:03;7.25;;;3.75;;
70335;SDS011;57756;47.408;18.940;2022-08-03T01:32:34;5.18;;;4.05;;
70335;SDS011;57756;47.408;18.940;2022-08-03T01:35:08;7.23;;;4.37;;
70335;SDS011;57756;47.408;18.940;2022-08-03T01:37:42;5.55;;;3.72;;
70335;SDS011;57756;47.408;18.940;2022-08-03T01:40:14;8.10;;;3.60;;
70335;SDS011;57756;47.408;18.940;2022-08-03T01:42:41;6.30;;;3.75;;
70335;SDS011;57756;47.408;18.940;2022-08-03T01:45:10;5.53;;;4.00;;
70335;SDS011;57756;47.408;18.940;2022-08-03T01:47:38;6.90;;;3.83;;
70335;SDS011;57756;47.408;18.940;2022-08-03T01:50:04;5.78;;;4.00;;
70335;SDS011;57756;47.408;18.940;2022-08-03T01:52:32;6.60;;;4.10;;
70335;SDS011;57756;47.408;18.940;2022-08-03T01:54:58;8.25;;;4.50;;
70335;SDS011;57756;47.408;18.940;2022-08-03T01:57:26;9.20;;;4.77;;
70335;SDS011;57756;47.408;18.940;2022-08-03T01:59:53;8.70;;;4.28;;
70335;SDS011;57756;47.408;18.940;2022-08-03T02:02:21;8.80;;;4.63;;
70335;SDS011;57756;47.408;18.940;2022-08-03T02:04:48;7.22;;;4.47;;
70335;SDS011;57756;47.408;18.940;2022-08-03T02:07:16;7.65;;;4.88;;
70335;SDS011;57756;47.408;18.940;2022-08-03T02:09:43;8.47;;;4.70;;
70335;SDS011;57756;47.408;18.940;2022-08-03T02:12:13;7.47;;;4.50;;
70335;SDS011;57756;47.408;18.940;2022-08-03T02:14:40;13.43;;;5.22;;
70335;SDS011;57756;47.408;18.940;2022-08-03T02:17:08;25.75;;;5.57;;
70335;SDS011;57756;47.408;18.940;2022-08-03T02:19:35;22.05;;;6.10;;
70335;SDS011;57756;47.408;18.940;2022-08-03T02:22:02;14.63;;;5.50;;
70335;SDS011;57756;47.408;18.940;2022-08-03T02:24:29;7.93;;;4.70;;
70335;SDS011;57756;47.408;18.940;2022-08-03T02:26:56;10.70;;;5.00;;
70335;SDS011;57756;47.408;18.940;2022-08-03T02:29:24;9.73;;;5.10;;
70335;SDS011;57756;47.408;18.940;2022-08-03T02:31:51;7.03;;;4.43;;
70335;SDS011;57756;47.408;18.940;2022-08-03T02:34:22;6.87;;;4.60;;
70335;SDS011;57756;47.408;18.940;2022-08-03T02:36:53;6.82;;;4.88;;
70335;SDS011;57756;47.408;18.940;2022-08-03T02:39:24;7.63;;;5.00;;
70335;SDS011;57756;47.408;18.940;2022-08-03T02:41:53;8.98;;;4.75;;
70335;SDS011;57756;47.408;18.940;2022-08-03T02:44:26;6.55;;;4.55;;
70335;SDS011;57756;47.408;18.940;2022-08-03T02:46:54;9.93;;;4.83;;
70335;SDS011;57756;47.408;18.940;2022-08-03T02:49:22;5.63;;;4.22;;
70335;SDS011;57756;47.408;18.940;2022-08-03T02:51:50;6.35;;;4.70;;
70335;SDS011;57756;47.408;18.940;2022-08-03T02:54:17;6.65;;;4.72;;
70335;SDS011;57756;47.408;18.940;2022-08-03T02:56:45;7.25;;;4.75;;
70335;SDS011;57756;47.408;18.940;2022-08-03T02:59:12;6.70;;;4.70;;
70335;SDS011;57756;47.408;18.940;2022-08-03T03:01:38;5.40;;;4.30;;
70335;SDS011;57756;47.408;18.940;2022-08-03T03:04:05;11.80;;;5.07;;
70335;SDS011;57756;47.408;18.940;2022-08-03T03:06:32;6.10;;;4.70;;
70335;SDS011;57756;47.408;18.940;2022-08-03T03:08:57;6.00;;;4.80;;
70335;SDS011;57756;47.408;18.940;2022-08-03T03:11:24;7.00;;;4.95;;
70335;SDS011;57756;47.408;18.940;2022-08-03T03:13:50;6.93;;;4.80;;
70335;SDS011;57756;47.408;18.940;2022-08-03T03:16:17;5.85;;;4.65;;
70335;SDS011;57756;47.408;18.940;2022-08-03T03:18:44;10.90;;;4.80;;
70335;SDS011;57756;47.408;18.940;2022-08-03T03:21:11;7.20;;;4.85;;
70335;SDS011;57756;47.408;18.940;2022-08-03T03:23:38;11.13;;;5.47;;
70335;SDS011;57756;47.408;18.940;2022-08-03T03:26:05;12.95;;;5.97;;
70335;SDS011;57756;47.408;18.940;2022-08-03T03:28:32;15.02;;;5.40;;
70335;SDS011;57756;47.408;18.940;2022-08-03T03:31:00;18.17;;;6.37;;
70335;SDS011;57756;47.408;18.940;2022-08-03T03:33:27;16.17;;;5.90;;
70335;SDS011;57756;47.408;18.940;2022-08-03T03:35:53;23.38;;;6.35;;
70335;SDS011;57756;47.408;18.940;2022-08-03T03:38:19;15.30;;;6.38;;
70335;SDS011;57756;47.408;18.940;2022-08-03T03:40:45;9.27;;;5.40;;
70335;SDS011;57756;47.408;18.940;2022-08-03T03:43:11;8.80;;;5.07;;
70335;SDS011;57756;47.408;18.940;2022-08-03T03:45:37;8.77;;;5.03;;
70335;SDS011;57756;47.408;18.940;2022-08-03T03:48:05;13.67;;;5.97;;
70335;SDS011;57756;47.408;18.940;2022-08-03T03:50:32;11.98;;;5.82;;
70335;SDS011;57756;47.408;18.940;2022-08-03T03:52:58;9.75;;;5.47;;
70335;SDS011;57756;47.408;18.940;2022-08-03T03:55:24;11.50;;;5.90;;
70335;SDS011;57756;47.408;18.940;2022-08-03T03:57:50;8.00;;;5.90;;
70335;SDS011;57756;47.408;18.940;2022-08-03T04:00:16;11.27;;;6.13;;
70335;SDS011;57756;47.408;18.940;2022-08-03T04:02:42;11.13;;;5.90;;
70335;SDS011;57756;47.408;18.940;2022-08-03T04:05:09;12.10;;;6.50;;
70335;SDS011;57756;47.408;18.940;2022-08-03T04:07:57;10.60;;;6.25;;
70335;SDS011;57756;47.408;18.940;2022-08-03T04:13:31;22.70;;;7.17;;
70335;SDS011;57756;47.408;18.940;2022-08-03T04:15:59;19.33;;;7.15;;
70335;SDS011;57756;47.408;18.940;2022-08-03T04:18:26;25.95;;;7.75;;
70335;SDS011;57756;47.408;18.940;2022-08-03T04:20:55;25.23;;;7.68;;
70335;SDS011;57756;47.408;18.940;2022-08-03T04:23:26;30.33;;;8.65;;
70335;SDS011;57756;47.408;18.940;2022-08-03T04:25:54;22.83;;;7.53;;
70335;SDS011;57756;47.408;18.940;2022-08-03T04:28:21;21.92;;;7.18;;
70335;SDS011;57756;47.408;18.940;2022-08-03T04:30:48;11.90;;;6.10;;
70335;SDS011;57756;47.408;18.940;2022-08-03T04:33:15;24.25;;;8.98;;
70335;SDS011;57756;47.408;18.940;2022-08-03T04:35:41;14.25;;;6.85;;
70335;SDS011;57756;47.408;18.940;2022-08-03T04:38:08;11.10;;;6.70;;
70335;SDS011;57756;47.408;18.940;2022-08-03T04:40:38;13.05;;;6.05;;
70335;SDS011;57756;47.408;18.940;2022-08-03T04:43:07;11.00;;;5.70;;
70335;SDS011;57756;47.408;18.940;2022-08-03T04:45:34;13.82;;;6.38;;
70335;SDS011;57756;47.408;18.940;2022-08-03T04:48:01;15.77;;;6.13;;
70335;SDS011;57756;47.408;18.940;2022-08-03T04:50:27;14.20;;;6.97;;
70335;SDS011;57756;47.408;18.940;2022-08-03T04:52:53;21.30;;;7.32;;
70335;SDS011;57756;47.408;18.940;2022-08-03T04:57:55;23.38;;;6.57;;
70335;SDS011;57756;47.408;18.940;2022-08-03T05:00:21;23.30;;;7.13;;
70335;SDS011;57756;47.408;18.940;2022-08-03T05:02:47;23.17;;;7.10;;
70335;SDS011;57756;47.408;18.940;2022-08-03T05:05:12;17.80;;;6.68;;
70335;SDS011;57756;47.408;18.940;2022-08-03T05:07:39;12.18;;;5.65;;
70335;SDS011;57756;47.408;18.940;2022-08-03T05:10:06;10.10;;;5.10;;
70335;SDS011;57756;47.408;18.940;2022-08-03T05:12:33;6.78;;;4.82;;
70335;SDS011;57756;47.408;18.940;2022-08-03T05:14:59;7.57;;;5.13;;
70335;SDS011;57756;47.408;18.940;2022-08-03T05:17:25;6.20;;;4.88;;
70335;SDS011;57756;47.408;18.940;2022-08-03T05:19:52;11.23;;;4.78;;
70335;SDS011;57756;47.408;18.940;2022-08-03T05:22:19;13.82;;;5.25;;
70335;SDS011;57756;47.408;18.940;2022-08-03T05:24:45;7.97;;;4.67;;
70335;SDS011;57756;47.408;18.940;2022-08-03T05:27:10;9.48;;;4.50;;
70335;SDS011;57756;47.408;18.940;2022-08-03T05:29:41;5.90;;;4.75;;
70335;SDS011;57756;47.408;18.940;2022-08-03T05:32:07;7.45;;;4.22;;
70335;SDS011;57756;47.408;18.940;2022-08-03T05:34:33;6.47;;;4.33;;
70335;SDS011;57756;47.408;18.940;2022-08-03T05:36:58;7.67;;;4.53;;
70335;SDS011;57756;47.408;18.940;2022-08-03T05:39:24;6.80;;;4.60;;
70335;SDS011;57756;47.408;18.940;2022-08-03T05:41:49;7.90;;;3.90;;
70335;SDS011;57756;47.408;18.940;2022-08-03T05:44:14;6.80;;;3.70;;
70335;SDS011;57756;47.408;18.940;2022-08-03T05:46:40;7.68;;;4.70;;
70335;SDS011;57756;47.408;18.940;2022-08-03T05:49:05;7.20;;;4.13;;
70335;SDS011;57756;47.408;18.940;2022-08-03T05:51:31;6.63;;;4.53;;
70335;SDS011;57756;47.408;18.940;2022-08-03T05:53:56;7.40;;;4.57;;
70335;SDS011;57756;47.408;18.940;2022-08-03T05:56:22;6.13;;;4.27;;
70335;SDS011;57756;47.408;18.940;2022-08-03T05:58:51;6.03;;;4.47;;
70335;SDS011;57756;47.408;18.940;2022-08-03T06:01:17;9.00;;;4.30;;
70335;SDS011;57756;47.408;18.940;2022-08-03T06:03:45;6.38;;;4.35;;
70335;SDS011;57756;47.408;18.940;2022-08-03T06:06:10;7.45;;;4.78;;
70335;SDS011;57756;47.408;18.940;2022-08-03T06:08:36;5.80;;;4.50;;
70335;SDS011;57756;47.408;18.940;2022-08-03T06:11:02;5.60;;;4.13;;
70335;SDS011;57756;47.408;18.940;2022-08-03T06:13:28;6.10;;;4.40;;
70335;SDS011;57756;47.408;18.940;2022-08-03T06:15:54;7.55;;;4.43;;
70335;SDS011;57756;47.408;18.940;2022-08-03T06:18:19;9.93;;;5.23;;
70335;SDS011;57756;47.408;18.940;2022-08-03T06:20:45;7.10;;;5.00;;
70335;SDS011;57756;47.408;18.940;2022-08-03T06:23:11;6.55;;;4.90;;
70335;SDS011;57756;47.408;18.940;2022-08-03T06:25:36;7.43;;;5.13;;
70335;SDS011;57756;47.408;18.940;2022-08-03T06:28:02;8.07;;;5.30;;
70335;SDS011;57756;47.408;18.940;2022-08-03T06:30:29;6.10;;;5.15;;
70335;SDS011;57756;47.408;18.940;2022-08-03T06:32:55;6.83;;;5.10;;
70335;SDS011;57756;47.408;18.940;2022-08-03T06:35:20;7.32;;;5.30;;
70335;SDS011;57756;47.408;18.940;2022-08-03T06:37:49;7.13;;;5.37;;
70335;SDS011;57756;47.408;18.940;2022-08-03T06:40:17;6.65;;;5.00;;
70335;SDS011;57756;47.408;18.940;2022-08-03T06:42:44;8.48;;;5.53;;
70335;SDS011;57756;47.408;18.940;2022-08-03T06:45:10;9.10;;;5.40;;
70335;SDS011;57756;47.408;18.940;2022-08-03T06:47:36;8.57;;;5.63;;
70335;SDS011;57756;47.408;18.940;2022-08-03T06:50:03;8.20;;;5.18;;
70335;SDS011;57756;47.408;18.940;2022-08-03T06:52:30;10.02;;;5.28;;
70335;SDS011;57756;47.408;18.940;2022-08-03T06:54:56;7.17;;;5.27;;
70335;SDS011;57756;47.408;18.940;2022-08-03T06:57:22;10.50;;;4.97;;
70335;SDS011;57756;47.408;18.940;2022-08-03T06:59:48;6.50;;;5.03;;
70335;SDS011;57756;47.408;18.940;2022-08-03T07:02:14;7.93;;;5.20;;
70335;SDS011;57756;47.408;18.940;2022-08-03T07:04:39;7.87;;;4.97;;
70335;SDS011;57756;47.408;18.940;2022-08-03T07:07:05;6.47;;;4.70;;
70335;SDS011;57756;47.408;18.940;2022-08-03T07:09:30;8.27;;;5.30;;
70335;SDS011;57756;47.408;18.940;2022-08-03T07:11:56;8.10;;;5.50;;
70335;SDS011;57756;47.408;18.940;2022-08-03T07:14:21;8.38;;;6.00;;
70335;SDS011;57756;47.408;18.940;2022-08-03T07:16:47;11.30;;;6.00;;
70335;SDS011;57756;47.408;18.940;2022-08-03T07:19:12;8.10;;;5.17;;
70335;SDS011;57756;47.408;18.940;2022-08-03T07:21:38;7.32;;;5.10;;
70335;SDS011;57756;47.408;18.940;2022-08-03T07:24:03;6.67;;;5.37;;
70335;SDS011;57756;47.408;18.940;2022-08-03T07:26:29;9.10;;;5.03;;
70335;SDS011;57756;47.408;18.940;2022-08-03T07:28:55;9.77;;;5.13;;
70335;SDS011;57756;47.408;18.940;2022-08-03T07:31:20;9.63;;;5.40;;
70335;SDS011;57756;47.408;18.940;2022-08-03T07:33:46;7.55;;;4.90;;
70335;SDS011;57756;47.408;18.940;2022-08-03T07:36:11;7.80;;;5.60;;
70335;SDS011;57756;47.408;18.940;2022-08-03T07:38:36;6.03;;;5.07;;
70335;SDS011;57756;47.408;18.940;2022-08-03T07:41:02;5.85;;;5.20;;
70335;SDS011;57756;47.408;18.940;2022-08-03T07:43:28;11.10;;;5.37;;
70335;SDS011;57756;47.408;18.940;2022-08-03T07:45:53;10.90;;;5.80;;
70335;SDS011;57756;47.408;18.940;2022-08-03T07:48:19;7.10;;;5.83;;
70335;SDS011;57756;47.408;18.940;2022-08-03T07:50:45;7.90;;;5.65;;
70335;SDS011;57756;47.408;18.940;2022-08-03T07:53:10;5.63;;;4.77;;
70335;SDS011;57756;47.408;18.940;2022-08-03T07:55:36;10.10;;;5.70;;
70335;SDS011;57756;47.408;18.940;2022-08-03T08:00:30;7.25;;;5.57;;
70335;SDS011;57756;47.408;18.940;2022-08-03T08:02:56;6.75;;;5.10;;
70335;SDS011;57756;47.408;18.940;2022-08-03T08:05:22;6.93;;;5.20;;
70335;SDS011;57756;47.408;18.940;2022-08-03T08:07:47;7.87;;;5.60;;
70335;SDS011;57756;47.408;18.940;2022-08-03T08:10:14;8.30;;;4.80;;
70335;SDS011;57756;47.408;18.940;2022-08-03T08:12:39;8.63;;;5.57;;
70335;SDS011;57756;47.408;18.940;2022-08-03T08:15:07;7.55;;;5.28;;
70335;SDS011;57756;47.408;18.940;2022-08-03T08:17:43;8.00;;;5.47;;
70335;SDS011;57756;47.408;18.940;2022-08-03T08:20:17;7.57;;;5.18;;
70335;SDS011;57756;47.408;18.940;2022-08-03T08:22:45;8.17;;;5.10;;
70335;SDS011;57756;47.408;18.940;2022-08-03T08:25:10;7.30;;;5.47;;
70335;SDS011;57756;47.408;18.940;2022-08-03T08:27:40;8.27;;;5.97;;
70335;SDS011;57756;47.408;18.940;2022-08-03T08:30:06;9.85;;;5.57;;
70335;SDS011;57756;47.408;18.940;2022-08-03T08:32:33;9.35;;;5.93;;
70335;SDS011;57756;47.408;18.940;2022-08-03T08:34:58;7.53;;;5.50;;
70335;SDS011;57756;47.408;18.940;2022-08-03T08:37:24;6.60;;;4.80;;
70335;SDS011;57756;47.408;18.940;2022-08-03T08:39:50;6.60;;;5.03;;
70335;SDS011;57756;47.408;18.940;2022-08-03T08:42:15;8.85;;;5.05;;
70335;SDS011;57756;47.408;18.940;2022-08-03T08:44:41;7.83;;;5.70;;
70335;SDS011;57756;47.408;18.940;2022-08-03T08:47:06;7.28;;;5.50;;
70335;SDS011;57756;47.408;18.940;2022-08-03T08:49:34;5.90;;;5.00;;
70335;SDS011;57756;47.408;18.940;2022-08-03T08:52:00;10.85;;;5.22;;
70335;SDS011;57756;47.408;18.940;2022-08-03T08:54:27;6.75;;;4.90;;
70335;SDS011;57756;47.408;18.940;2022-08-03T08:56:54;6.50;;;4.75;;
70335;SDS011;57756;47.408;18.940;2022-08-03T08:59:25;7.95;;;4.95;;
70335;SDS011;57756;47.408;18.940;2022-08-03T09:01:55;6.80;;;4.57;;
70335;SDS011;57756;47.408;18.940;2022-08-03T09:04:22;6.57;;;4.15;;
70335;SDS011;57756;47.408;18.940;2022-08-03T09:06:48;6.47;;;4.95;;
70335;SDS011;57756;47.408;18.940;2022-08-03T09:09:14;5.53;;;4.93;;
70335;SDS011;57756;47.408;18.940;2022-08-03T09:11:43;7.83;;;5.00;;
70335;SDS011;57756;47.408;18.940;2022-08-03T09:14:09;8.55;;;5.18;;
70335;SDS011;57756;47.408;18.940;2022-08-03T09:16:35;6.70;;;4.68;;
70335;SDS011;57756;47.408;18.940;2022-08-03T09:19:11;5.33;;;4.47;;
70335;SDS011;57756;47.408;18.940;2022-08-03T09:21:38;6.72;;;4.20;;
70335;SDS011;57756;47.408;18.940;2022-08-03T09:24:04;7.13;;;4.78;;
70335;SDS011;57756;47.408;18.940;2022-08-03T09:26:31;7.47;;;5.70;;
70335;SDS011;57756;47.408;18.940;2022-08-03T09:34:09;7.95;;;4.78;;
70335;SDS011;57756;47.408;18.940;2022-08-03T09:39:09;7.23;;;4.67;;
70335;SDS011;57756;47.408;18.940;2022-08-03T09:41:37;6.88;;;5.05;;
70335;SDS011;57756;47.408;18.940;2022-08-03T09:44:09;5.88;;;4.53;;
70335;SDS011;57756;47.408;18.940;2022-08-03T09:46:48;7.43;;;4.60;;
70335;SDS011;57756;47.408;18.940;2022-08-03T09:49:15;7.13;;;4.97;;
70335;SDS011;57756;47.408;18.940;2022-08-03T09:51:40;5.53;;;4.32;;
70335;SDS011;57756;47.408;18.940;2022-08-03T09:54:06;8.57;;;4.30;;
70335;SDS011;57756;47.408;18.940;2022-08-03T09:59:08;4.60;;;3.72;;
70335;SDS011;57756;47.408;18.940;2022-08-03T10:01:35;6.75;;;3.90;;
70335;SDS011;57756;47.408;18.940;2022-08-03T10:04:01;6.90;;;4.03;;
70335;SDS011;57756;47.408;18.940;2022-08-03T10:06:27;5.22;;;3.40;;
70335;SDS011;57756;47.408;18.940;2022-08-03T10:09:12;6.30;;;4.13;;
70335;SDS011;57756;47.408;18.940;2022-08-03T10:11:39;6.20;;;4.07;;
70335;SDS011;57756;47.408;18.940;2022-08-03T10:14:08;6.65;;;4.22;;
70335;SDS011;57756;47.408;18.940;2022-08-03T10:16:36;6.20;;;4.40;;
70335;SDS011;57756;47.408;18.940;2022-08-03T10:19:03;5.05;;;4.20;;
70335;SDS011;57756;47.408;18.940;2022-08-03T10:21:36;5.30;;;4.28;;
70335;SDS011;57756;47.408;18.940;2022-08-03T10:24:04;6.97;;;4.77;;
70335;SDS011;57756;47.408;18.940;2022-08-03T10:26:32;5.90;;;4.65;;
70335;SDS011;57756;47.408;18.940;2022-08-03T10:28:59;7.05;;;5.18;;
70335;SDS011;57756;47.408;18.940;2022-08-03T10:31:33;8.95;;;5.22;;
70335;SDS011;57756;47.408;18.940;2022-08-03T10:34:03;5.70;;;4.78;;
70335;SDS011;57756;47.408;18.940;2022-08-03T10:36:30;5.90;;;4.53;;
70335;SDS011;57756;47.408;18.940;2022-08-03T10:38:59;5.43;;;4.30;;
70335;SDS011;57756;47.408;18.940;2022-08-03T10:41:29;5.90;;;5.20;;
70335;SDS011;57756;47.408;18.940;2022-08-03T10:46:31;6.20;;;5.03;;
70335;SDS011;57756;47.408;18.940;2022-08-03T10:48:59;5.87;;;4.60;;
70335;SDS011;57756;47.408;18.940;2022-08-03T10:51:25;5.82;;;4.43;;
70335;SDS011;57756;47.408;18.940;2022-08-03T10:53:55;6.90;;;4.40;;
70335;SDS011;57756;47.408;18.940;2022-08-03T10:59:15;5.70;;;4.70;;
70335;SDS011;57756;47.408;18.940;2022-08-03T11:01:57;5.15;;;4.15;;
70335;SDS011;57756;47.408;18.940;2022-08-03T11:04:24;8.63;;;4.18;;
70335;SDS011;57756;47.408;18.940;2022-08-03T11:09:48;4.35;;;3.95;;
70335;SDS011;57756;47.408;18.940;2022-08-03T11:12:29;4.47;;;3.67;;
70335;SDS011;57756;47.408;18.940;2022-08-03T11:14:57;5.75;;;3.80;;
70335;SDS011;57756;47.408;18.940;2022-08-03T11:17:27;5.22;;;3.88;;
70335;SDS011;57756;47.408;18.940;2022-08-03T11:19:53;5.72;;;3.70;;
70335;SDS011;57756;47.408;18.940;2022-08-03T11:22:19;5.67;;;3.80;;
70335;SDS011;57756;47.408;18.940;2022-08-03T11:35:12;10.48;;;4.20;;
70335;SDS011;57756;47.408;18.940;2022-08-03T11:45:59;4.07;;;3.67;;
70335;SDS011;57756;47.408;18.940;2022-08-03T11:48:44;4.53;;;3.33;;
70335;SDS011;57756;47.408;18.940;2022-08-03T11:51:44;4.00;;;3.55;;
70335;SDS011;57756;47.408;18.940;2022-08-03T11:54:05;4.32;;;3.25;;
70335;SDS011;57756;47.408;18.940;2022-08-03T11:56:47;4.47;;;3.07;;
70335;SDS011;57756;47.408;18.940;2022-08-03T11:59:13;4.53;;;3.45;;
70335;SDS011;57756;47.408;18.940;2022-08-03T12:01:40;5.15;;;4.00;;
70335;SDS011;57756;47.408;18.940;2022-08-03T12:04:05;4.37;;;3.27;;
70335;SDS011;57756;47.408;18.940;2022-08-03T12:06:31;4.45;;;3.35;;
70335;SDS011;57756;47.408;18.940;2022-08-03T12:09:18;7.20;;;3.97;;
70335;SDS011;57756;47.408;18.940;2022-08-03T12:11:47;7.83;;;3.90;;
70335;SDS011;57756;47.408;18.940;2022-08-03T12:14:16;5.22;;;3.60;;
70335;SDS011;57756;47.408;18.940;2022-08-03T12:16:46;4.53;;;3.92;;
70335;SDS011;57756;47.408;18.940;2022-08-03T12:19:13;4.10;;;3.33;;
70335;SDS011;57756;47.408;18.940;2022-08-03T12:21:45;5.05;;;3.22;;
70335;SDS011;57756;47.408;18.940;2022-08-03T12:24:13;6.00;;;3.30;;
70335;SDS011;57756;47.408;18.940;2022-08-03T12:26:42;4.18;;;3.28;;
70335;SDS011;57756;47.408;18.940;2022-08-03T12:29:19;5.25;;;3.63;;
70335;SDS011;57756;47.408;18.940;2022-08-03T12:31:45;4.27;;;3.07;;
70335;SDS011;57756;47.408;18.940;2022-08-03T12:34:11;4.88;;;3.10;;
70335;SDS011;57756;47.408;18.940;2022-08-03T12:36:48;5.78;;;3.45;;
70335;SDS011;57756;47.408;18.940;2022-08-03T12:39:15;4.68;;;3.47;;
70335;SDS011;57756;47.408;18.940;2022-08-03T12:41:40;3.90;;;3.30;;
70335;SDS011;57756;47.408;18.940;2022-08-03T12:44:08;4.40;;;3.50;;
70335;SDS011;57756;47.408;18.940;2022-08-03T12:46:34;7.35;;;3.10;;
70335;SDS011;57756;47.408;18.940;2022-08-03T12:49:10;6.68;;;4.50;;
70335;SDS011;57756;47.408;18.940;2022-08-03T12:54:08;4.03;;;3.25;;
70335;SDS011;57756;47.408;18.940;2022-08-03T12:59:32;4.03;;;2.90;;
70335;SDS011;57756;47.408;18.940;2022-08-03T13:02:13;4.80;;;3.20;;
70335;SDS011;57756;47.408;18.940;2022-08-03T13:04:40;4.30;;;3.10;;
70335;SDS011;57756;47.408;18.940;2022-08-03T13:07:07;5.63;;;3.50;;
70335;SDS011;57756;47.408;18.940;2022-08-03T13:09:43;4.10;;;3.08;;
70335;SDS011;57756;47.408;18.940;2022-08-03T13:12:11;4.68;;;3.03;;
70335;SDS011;57756;47.408;18.940;2022-08-03T13:14:38;4.75;;;2.88;;
70335;SDS011;57756;47.408;18.940;2022-08-03T13:17:05;5.53;;;3.13;;
70335;SDS011;57756;47.408;18.940;2022-08-03T13:19:34;4.40;;;2.80;;
70335;SDS011;57756;47.408;18.940;2022-08-03T13:22:09;4.40;;;3.60;;
70335;SDS011;57756;47.408;18.940;2022-08-03T13:24:39;5.57;;;3.28;;
70335;SDS011;57756;47.408;18.940;2022-08-03T13:27:05;5.93;;;4.25;;
70335;SDS011;57756;47.408;18.940;2022-08-03T13:29:31;7.80;;;3.63;;
70335;SDS011;57756;47.408;18.940;2022-08-03T13:31:58;5.22;;;3.33;;
70335;SDS011;57756;47.408;18.940;2022-08-03T13:34:24;4.72;;;3.42;;
70335;SDS011;57756;47.408;18.940;2022-08-03T13:36:50;4.67;;;3.20;;
70335;SDS011;57756;47.408;18.940;2022-08-03T13:39:16;4.80;;;3.15;;
70335;SDS011;57756;47.408;18.940;2022-08-03T13:41:43;4.10;;;3.40;;
70335;SDS011;57756;47.408;18.940;2022-08-03T13:44:09;5.20;;;3.40;;
70335;SDS011;57756;47.408;18.940;2022-08-03T13:46:34;5.60;;;3.67;;
70335;SDS011;57756;47.408;18.940;2022-08-03T13:49:00;6.67;;;3.73;;
70335;SDS011;57756;47.408;18.940;2022-08-03T13:51:25;3.97;;;3.37;;
70335;SDS011;57756;47.408;18.940;2022-08-03T13:53:51;4.63;;;3.60;;
70335;SDS011;57756;47.408;18.940;2022-08-03T13:56:16;4.70;;;3.53;;
70335;SDS011;57756;47.408;18.940;2022-08-03T13:58:42;4.00;;;3.60;;
70335;SDS011;57756;47.408;18.940;2022-08-03T14:01:07;4.22;;;3.80;;
70335;SDS011;57756;47.408;18.940;2022-08-03T14:03:33;3.83;;;3.20;;
70335;SDS011;57756;47.408;18.940;2022-08-03T14:05:59;4.80;;;4.13;;
70335;SDS011;57756;47.408;18.940;2022-08-03T14:08:24;4.13;;;3.72;;
70335;SDS011;57756;47.408;18.940;2022-08-03T14:10:50;4.37;;;3.30;;
70335;SDS011;57756;47.408;18.940;2022-08-03T14:13:15;12.70;;;3.70;;
70335;SDS011;57756;47.408;18.940;2022-08-03T14:15:41;5.55;;;3.83;;
70335;SDS011;57756;47.408;18.940;2022-08-03T14:18:07;5.60;;;3.30;;
70335;SDS011;57756;47.408;18.940;2022-08-03T14:20:33;4.55;;;3.63;;
70335;SDS011;57756;47.408;18.940;2022-08-03T14:22:59;5.90;;;4.00;;
70335;SDS011;57756;47.408;18.940;2022-08-03T14:25:24;6.32;;;3.85;;
70335;SDS011;57756;47.408;18.940;2022-08-03T14:27:49;5.93;;;3.60;;
70335;SDS011;57756;47.408;18.940;2022-08-03T14:30:15;4.20;;;3.27;;
70335;SDS011;57756;47.408;18.940;2022-08-03T14:32:41;4.72;;;3.65;;
70335;SDS011;57756;47.408;18.940;2022-08-03T14:35:06;7.03;;;3.60;;
70335;SDS011;57756;47.408;18.940;2022-08-03T14:37:33;4.15;;;3.50;;
70335;SDS011;57756;47.408;18.940;2022-08-03T14:39:58;5.87;;;3.47;;
70335;SDS011;57756;47.408;18.940;2022-08-03T14:42:24;3.97;;;3.17;;
70335;SDS011;57756;47.408;18.940;2022-08-03T14:44:49;4.87;;;3.47;;
70335;SDS011;57756;47.408;18.940;2022-08-03T14:47:15;4.90;;;3.50;;
70335;SDS011;57756;47.408;18.940;2022-08-03T14:49:41;5.33;;;3.60;;
70335;SDS011;57756;47.408;18.940;2022-08-03T14:52:07;4.85;;;3.05;;
70335;SDS011;57756;47.408;18.940;2022-08-03T14:54:33;4.25;;;3.33;;
70335;SDS011;57756;47.408;18.940;2022-08-03T14:56:58;4.43;;;3.27;;
70335;SDS011;57756;47.408;18.940;2022-08-03T14:59:24;6.87;;;3.77;;
70335;SDS011;57756;47.408;18.940;2022-08-03T15:01:50;6.15;;;3.50;;
70335;SDS011;57756;47.408;18.940;2022-08-03T15:04:15;3.90;;;3.17;;
70335;SDS011;57756;47.408;18.940;2022-08-03T15:06:41;4.88;;;3.47;;
70335;SDS011;57756;47.408;18.940;2022-08-03T15:09:07;6.07;;;3.47;;
70335;SDS011;57756;47.408;18.940;2022-08-03T15:11:32;5.10;;;3.58;;
70335;SDS011;57756;47.408;18.940;2022-08-03T15:13:58;4.57;;;3.43;;
70335;SDS011;57756;47.408;18.940;2022-08-03T15:16:23;4.40;;;3.40;;
70335;SDS011;57756;47.408;18.940;2022-08-03T15:18:49;6.35;;;3.40;;
70335;SDS011;57756;47.408;18.940;2022-08-03T15:21:14;4.73;;;3.27;;
70335;SDS011;57756;47.408;18.940;2022-08-03T15:23:40;5.30;;;3.13;;
70335;SDS011;57756;47.408;18.940;2022-08-03T15:26:05;6.03;;;3.55;;
70335;SDS011;57756;47.408;18.940;2022-08-03T15:28:31;4.47;;;3.47;;
70335;SDS011;57756;47.408;18.940;2022-08-03T15:30:57;6.47;;;3.30;;